Terminal Aerodrome Forecast
Issued by NWS

Current Version | Previous Version | Text Only | Print | Product List | Glossary On
Versions: 1 2 3 4 5 6 7 8 9 10 11 12 13 14 15 16 17 18 19 20 21 22 23 24 25 26 27 28 29 30 31 32 33
000
FTUS41 KBOX 272032 AAA
TAFFMH
TAF AMD
KFMH 272032Z 2721/2818 20005KT 6SM BR BKN015
     FM280000 19005KT 1/2SM FG BKN003
     FM280200 18005KT 1/4SM FG BKN003
     FM281000 21008KT 3/4SM BR VCSH BKN010
     FM281500 22010KT P6SM VCSH OVC010=

USA.gov is the U.S. government's official web portal to all federal, state and local government web resources and services.